Time;durP1;ratioP1;P1;durP2;ratioP2;P2;SDS_P1;SDS_P2;PMS_P1;PMS_P2;Temp;Humidity;BMP_temperature;BMP_pressure;BME280_temperature;BME280_humidity;BME280_pressure;Samples;Min_cycle;Max_cycle;Signal;HPM_P1;HPM_P2
2022/09/04 00:01:54;;;;;;;3.80;0.95;;;14.20;66.20;;;;;;4901052;29;20524;-73
2022/09/04 00:05:00;;;;;;;3.30;0.73;;;14.20;66.10;;;;;;4906129;29;20143;-73
2022/09/04 00:07:33;;;;;;;2.05;0.70;;;14.10;66.40;;;;;;4902670;29;20107;-72
2022/09/04 00:10:16;;;;;;;2.03;0.88;;;14.10;66.60;;;;;;4903701;29;20329;-73
2022/09/04 00:12:55;;;;;;;2.25;0.90;;;14.10;66.60;;;;;;4908458;29;20035;-73
2022/09/04 00:15:35;;;;;;;2.17;0.80;;;14.10;67.30;;;;;;4900719;29;20041;-73
2022/09/04 00:18:18;;;;;;;2.47;0.90;;;14.00;67.10;;;;;;4914528;29;20040;-73
2022/09/04 00:21:10;;;;;;;1.52;0.85;;;14.00;67.30;;;;;;4903856;29;20610;-73
2022/09/04 00:23:58;;;;;;;1.70;0.98;;;14.00;67.40;;;;;;4908302;29;20308;-73
2022/09/04 00:26:39;;;;;;;2.97;0.82;;;14.00;67.60;;;;;;4908758;29;20020;-73
2022/09/04 00:29:35;;;;;;;0.95;0.75;;;14.00;67.80;;;;;;4907967;29;20032;-73
2022/09/04 00:32:23;;;;;;;0.80;0.60;;;14.00;67.80;;;;;;4882674;29;20040;-73
2022/09/04 00:35:02;;;;;;;1.55;1.00;;;14.00;67.80;;;;;;4896086;29;20071;-73
2022/09/04 00:37:51;;;;;;;1.25;0.80;;;13.90;67.80;;;;;;4909893;29;20076;-73
2022/09/04 00:40:56;;;;;;;2.85;0.80;;;13.80;68.20;;;;;;4891041;29;20048;-73
2022/09/04 00:43:43;;;;;;;1.75;0.77;;;13.70;68.50;;;;;;4907800;29;20172;-73
2022/09/04 00:46:41;;;;;;;1.33;0.75;;;13.70;68.70;;;;;;4909504;29;20361;-73
2022/09/04 00:49:32;;;;;;;1.70;0.80;;;13.60;69.10;;;;;;4906688;29;20084;-73
2022/09/04 00:52:09;;;;;;;4.05;0.90;;;13.60;69.20;;;;;;4909549;29;20032;-73
2022/09/04 00:54:51;;;;;;;2.33;0.85;;;13.60;69.40;;;;;;4897706;29;20051;-73
2022/09/04 00:57:54;;;;;;;1.63;0.70;;;13.60;69.30;;;;;;4902178;29;20044;-73
2022/09/04 01:00:21;;;;;;;1.40;0.90;;;13.60;69.70;;;;;;4901733;29;20364;-73
2022/09/04 01:03:17;;;;;;;2.63;0.80;;;13.50;69.70;;;;;;4903959;29;20257;-73
2022/09/04 01:06:02;;;;;;;3.75;1.13;;;13.50;69.90;;;;;;4908336;29;20039;-73
2022/09/04 01:09:11;;;;;;;2.35;0.88;;;13.50;70.10;;;;;;4901543;29;20020;-73
2022/09/04 01:11:56;;;;;;;2.75;0.90;;;13.50;70.40;;;;;;4902038;29;20028;-73
2022/09/04 01:14:45;;;;;;;1.92;0.90;;;13.40;70.60;;;;;;4905339;29;20064;-73
2022/09/04 01:17:37;;;;;;;3.13;0.95;;;13.40;70.80;;;;;;4903062;29;20039;-73
2022/09/04 01:20:38;;;;;;;1.85;1.00;;;13.30;70.70;;;;;;4910791;29;20024;-73
2022/09/04 01:23:23;;;;;;;1.77;0.82;;;13.30;70.80;;;;;;4908345;29;20488;-73
2022/09/04 01:25:59;;;;;;;1.65;1.00;;;13.30;71.00;;;;;;4896498;29;20020;-73
2022/09/04 01:28:49;;;;;;;3.03;0.90;;;13.20;71.00;;;;;;4901525;29;20372;-72
2022/09/04 01:31:41;;;;;;;3.80;0.80;;;13.20;71.30;;;;;;4900354;29;20024;-72
2022/09/04 01:34:58;;;;;;;1.00;0.82;;;13.10;71.70;;;;;;4905512;29;20055;-73
2022/09/04 01:37:53;;;;;;;3.70;1.02;;;13.10;71.80;;;;;;4902251;29;20024;-73
2022/09/04 01:40:31;;;;;;;3.83;1.25;;;13.00;72.00;;;;;;4877618;29;20144;-73
2022/09/04 01:43:02;;;;;;;1.48;0.70;;;13.00;72.20;;;;;;4914429;29;20150;-73
2022/09/04 01:46:06;;;;;;;2.05;0.80;;;13.00;72.30;;;;;;4903997;29;20532;-73
2022/09/04 01:48:40;;;;;;;2.05;0.90;;;13.00;72.70;;;;;;4906462;29;20032;-73
2022/09/04 01:51:23;;;;;;;3.00;0.88;;;12.90;72.40;;;;;;4912176;29;20028;-72
2022/09/04 01:54:03;;;;;;;1.77;0.80;;;12.90;72.60;;;;;;4906224;29;20087;-73
2022/09/04 01:56:50;;;;;;;3.05;0.88;;;12.90;72.60;;;;;;4908607;29;20123;-72
2022/09/04 01:59:28;;;;;;;2.88;0.80;;;13.00;72.50;;;;;;4912182;29;20044;-72
2022/09/04 02:02:13;;;;;;;3.10;1.10;;;13.00;72.60;;;;;;4904321;29;20084;-73
2022/09/04 02:04:47;;;;;;;2.83;0.60;;;13.00;72.80;;;;;;4906392;29;20728;-73
2022/09/04 02:07:24;;;;;;;2.95;0.98;;;13.00;72.90;;;;;;4905654;29;20020;-72
2022/09/04 02:10:07;;;;;;;1.60;0.90;;;13.00;72.40;;;;;;4907297;29;20036;-73
2022/09/04 02:12:49;;;;;;;1.42;0.93;;;13.00;72.60;;;;;;4911130;29;20024;-72
2022/09/04 02:16:13;;;;;;;1.30;0.90;;;13.00;72.60;;;;;;4912031;29;20040;-72
2022/09/04 02:19:14;;;;;;;1.38;0.82;;;13.00;72.80;;;;;;4881840;29;20134;-72
2022/09/04 02:22:00;;;;;;;;;;;13.00;72.70;;;;;;4900370;29;20040;-72
2022/09/04 02:24:51;;;;;;;1.92;0.90;;;12.90;73.20;;;;;;4903830;29;19969;-72
2022/09/04 02:27:25;;;;;;;1.20;0.70;;;12.90;73.20;;;;;;4906708;29;20355;-72
2022/09/04 02:30:04;;;;;;;1.13;0.75;;;12.90;73.40;;;;;;4911723;29;20039;-72
2022/09/04 02:32:55;;;;;;;2.35;0.80;;;12.90;73.10;;;;;;4910248;29;20028;-72
2022/09/04 02:35:50;;;;;;;1.30;0.70;;;13.00;73.20;;;;;;4910021;29;20036;-72
2022/09/04 02:38:35;;;;;;;1.08;0.80;;;13.00;73.00;;;;;;4902762;29;20024;-72
2022/09/04 02:41:57;;;;;;;3.05;0.95;;;13.00;73.00;;;;;;4901241;29;20501;-72
2022/09/04 02:44:46;;;;;;;3.50;0.98;;;13.00;73.00;;;;;;4834419;29;20102;-72
2022/09/04 02:47:27;;;;;;;0.90;0.70;;;12.90;73.20;;;;;;4908811;29;20302;-72
2022/09/04 02:50:02;;;;;;;1.05;0.90;;;12.90;73.40;;;;;;4909832;29;20040;-72
2022/09/04 02:53:00;;;;;;;4.28;1.02;;;12.90;73.30;;;;;;4911143;29;20032;-73
2022/09/04 02:55:56;;;;;;;1.75;1.00;;;12.90;73.50;;;;;;4898935;29;20033;-73
2022/09/04 02:59:01;;;;;;;2.95;0.88;;;12.80;73.50;;;;;;4901981;29;20040;-73
2022/09/04 03:01:52;;;;;;;2.78;0.75;;;12.80;73.50;;;;;;4902558;29;20024;-73
2022/09/04 03:04:48;;;;;;;3.25;0.95;;;12.70;73.70;;;;;;4906473;29;20158;-73
2022/09/04 03:07:33;;;;;;;1.73;1.00;;;12.70;73.70;;;;;;4910574;29;20449;-72
2022/09/04 03:10:05;;;;;;;3.13;1.15;;;12.70;73.90;;;;;;4911549;29;20103;-72
2022/09/04 03:12:38;;;;;;;2.33;1.00;;;12.70;73.60;;;;;;4907745;29;20032;-72
2022/09/04 03:15:21;;;;;;;1.45;0.90;;;12.70;73.80;;;;;;4895221;29;20165;-73
2022/09/04 03:17:57;;;;;;;4.25;1.23;;;12.70;73.60;;;;;;4907805;29;20175;-73
2022/09/04 03:20:26;;;;;;;1.52;0.98;;;12.70;73.60;;;;;;4906917;29;20020;-72
2022/09/04 03:23:11;;;;;;;1.27;0.90;;;12.70;73.60;;;;;;4895154;29;20443;-73
2022/09/04 03:25:49;;;;;;;4.03;1.02;;;12.70;73.70;;;;;;4911085;29;20056;-72
2022/09/04 03:29:04;;;;;;;4.32;0.88;;;12.60;73.70;;;;;;4906873;29;20032;-72
2022/09/04 03:32:03;;;;;;;2.35;0.80;;;12.70;73.50;;;;;;4844614;29;20062;-72
2022/09/04 03:34:54;;;;;;;1.88;0.80;;;12.50;73.60;;;;;;4898216;29;20097;-72
2022/09/04 03:37:41;;;;;;;1.80;1.00;;;12.50;74.10;;;;;;4896150;29;20029;-72
2022/09/04 03:40:29;;;;;;;3.00;0.95;;;12.50;74.10;;;;;;4896084;29;20636;-72
2022/09/04 03:43:23;;;;;;;5.22;1.23;;;12.50;74.10;;;;;;4910142;29;20059;-72
2022/09/04 03:46:13;;;;;;;2.40;0.80;;;12.40;74.10;;;;;;4913134;29;20357;-72
2022/09/04 03:49:20;;;;;;;2.88;0.88;;;12.50;74.00;;;;;;4915428;29;20112;-72
2022/09/04 03:52:31;;;;;;;1.85;0.90;;;12.40;74.30;;;;;;4899090;29;20123;-73
2022/09/04 03:55:14;;;;;;;1.85;0.90;;;12.40;74.30;;;;;;4909104;29;20032;-72
2022/09/04 03:57:53;;;;;;;3.83;0.90;;;12.30;74.30;;;;;;4913541;29;20027;-72
2022/09/04 04:00:20;;;;;;;3.78;1.38;;;12.30;74.30;;;;;;4913681;29;20345;-72
2022/09/04 04:03:13;;;;;;;3.45;1.00;;;12.30;74.60;;;;;;4912270;29;20045;-72
2022/09/04 04:06:11;;;;;;;3.88;1.27;;;12.30;74.80;;;;;;4909999;29;20028;-72
2022/09/04 04:08:50;;;;;;;1.85;0.98;;;12.30;74.60;;;;;;4905037;29;20024;-71
2022/09/04 04:11:46;;;;;;;1.85;1.10;;;12.20;74.90;;;;;;4897676;29;20052;-71
2022/09/04 04:14:53;;;;;;;1.63;0.90;;;12.20;74.90;;;;;;4902365;29;20146;-72
2022/09/04 04:17:37;;;;;;;3.97;1.08;;;12.20;74.80;;;;;;4895261;29;20357;-70
2022/09/04 04:20:43;;;;;;;3.08;1.10;;;12.10;74.80;;;;;;4897647;29;20029;-70
2022/09/04 04:23:17;;;;;;;1.52;1.00;;;12.10;75.00;;;;;;4905085;29;20084;-70
2022/09/04 04:26:01;;;;;;;1.67;1.00;;;12.20;75.00;;;;;;4901388;29;20126;-70
2022/09/04 04:28:58;;;;;;;1.88;1.00;;;12.20;75.20;;;;;;4916418;29;20024;-70
2022/09/04 04:31:43;;;;;;;3.65;1.13;;;12.20;75.10;;;;;;4906096;29;20403;-70
2022/09/04 04:34:31;;;;;;;2.05;1.00;;;12.10;75.10;;;;;;4903953;29;20068;-70
2022/09/04 04:37:00;;;;;;;2.33;1.17;;;12.20;75.00;;;;;;4900728;29;20131;-70
2022/09/04 04:39:31;;;;;;;2.22;1.08;;;12.10;75.10;;;;;;4911930;29;20025;-70
2022/09/04 04:42:11;;;;;;;2.60;1.20;;;12.10;75.20;;;;;;4913601;29;20028;-70
2022/09/04 04:48:14;;;;;;;3.83;1.30;;;12.10;75.30;;;;;;4905203;29;20396;-70
2022/09/04 04:51:07;;;;;;;2.17;1.10;;;12.00;75.60;;;;;;4913818;29;20024;-70
2022/09/04 04:53:41;;;;;;;4.00;0.95;;;12.00;75.60;;;;;;4912317;29;20085;-70
2022/09/04 04:56:23;;;;;;;3.28;1.00;;;12.10;75.70;;;;;;4907968;29;20047;-70
2022/09/04 04:59:19;;;;;;;3.10;1.10;;;12.10;75.30;;;;;;4912400;29;20044;-70
2022/09/04 05:02:07;;;;;;;3.83;0.90;;;12.20;75.30;;;;;;4911064;29;20028;-70
2022/09/04 05:04:53;;;;;;;4.32;0.90;;;12.20;75.10;;;;;;4906183;29;20502;-71
2022/09/04 05:07:36;;;;;;;2.40;1.23;;;12.30;75.20;;;;;;4910402;29;20032;-72
2022/09/04 05:10:13;;;;;;;2.70;1.17;;;12.20;75.20;;;;;;4916115;29;20115;-70
2022/09/04 05:13:19;;;;;;;1.30;0.90;;;12.40;75.10;;;;;;4906404;29;20043;-70
2022/09/04 05:16:02;;;;;;;2.53;1.25;;;12.40;74.90;;;;;;4904299;29;20040;-70
2022/09/04 05:18:35;;;;;;;2.25;0.85;;;12.50;74.90;;;;;;4909158;29;20024;-70
2022/09/04 05:21:03;;;;;;;1.98;1.00;;;12.50;74.70;;;;;;4899092;29;20057;-70
2022/09/04 05:23:36;;;;;;;3.75;0.98;;;12.60;74.70;;;;;;4910210;29;20144;-71
2022/09/04 05:26:14;;;;;;;3.65;0.98;;;12.70;74.60;;;;;;4917440;29;20039;-67
2022/09/04 05:28:49;;;;;;;6.35;1.23;;;12.70;74.40;;;;;;4907636;29;20030;-67
2022/09/04 05:31:55;;;;;;;3.28;1.10;;;12.70;74.50;;;;;;4914849;29;20020;-68
2022/09/04 05:34:51;;;;;;;1.77;1.10;;;12.80;74.50;;;;;;4890785;29;20417;-67
2022/09/04 05:37:43;;;;;;;1.77;0.95;;;12.80;74.40;;;;;;4915311;29;20114;-68
2022/09/04 05:40:25;;;;;;;1.42;1.00;;;12.90;74.20;;;;;;4907694;29;20051;-67
2022/09/04 05:43:16;;;;;;;1.60;0.98;;;13.00;74.20;;;;;;4905860;29;20409;-69
2022/09/04 05:45:48;;;;;;;2.80;0.90;;;13.00;74.10;;;;;;4910193;29;20063;-68
2022/09/04 05:48:50;;;;;;;2.67;1.30;;;13.10;73.30;;;;;;4904892;29;20040;-68
2022/09/04 05:51:47;;;;;;;4.00;0.82;;;13.20;73.20;;;;;;4910764;29;20119;-69
2022/09/04 05:54:40;;;;;;;3.25;1.00;;;13.30;72.80;;;;;;4912063;29;20039;-69
2022/09/04 05:57:20;;;;;;;2.97;1.02;;;13.30;73.30;;;;;;4906740;29;20357;-69
2022/09/04 06:00:03;;;;;;;1.73;1.02;;;13.40;72.50;;;;;;4905104;29;20040;-69
2022/09/04 06:03:07;;;;;;;3.15;1.17;;;13.50;72.50;;;;;;4899557;29;20471;-69
2022/09/04 06:05:45;;;;;;;1.48;0.80;;;13.70;72.00;;;;;;4900875;29;20036;-68
2022/09/04 06:08:41;;;;;;;2.45;0.90;;;13.70;71.90;;;;;;4908642;29;20032;-68
2022/09/04 06:11:45;;;;;;;1.77;1.10;;;13.80;71.80;;;;;;4916549;29;20059;-69
2022/09/04 06:14:55;;;;;;;1.35;0.90;;;13.90;71.60;;;;;;4918048;29;20043;-68
2022/09/04 06:17:54;;;;;;;3.58;0.80;;;14.00;70.60;;;;;;4918654;29;20138;-68
2022/09/04 06:20:42;;;;;;;2.20;0.75;;;14.10;70.50;;;;;;4916945;29;20068;-68
2022/09/04 06:23:26;;;;;;;3.90;1.08;;;14.20;70.30;;;;;;4913813;29;20032;-68
2022/09/04 06:26:05;;;;;;;3.17;1.27;;;14.20;70.90;;;;;;4918669;29;20035;-68
2022/09/04 06:29:07;;;;;;;8.35;1.33;;;14.40;70.10;;;;;;4916221;29;20444;-68
2022/09/04 06:32:10;;;;;;;5.47;1.35;;;14.40;69.50;;;;;;4899704;29;20021;-68
2022/09/04 06:34:50;;;;;;;3.08;1.13;;;14.50;69.80;;;;;;4912095;29;20099;-68
2022/09/04 06:37:39;;;;;;;3.10;1.10;;;14.60;69.30;;;;;;4918513;29;20027;-68
2022/09/04 06:40:18;;;;;;;1.92;1.05;;;14.60;69.20;;;;;;4899273;29;20037;-68
2022/09/04 06:43:06;;;;;;;2.67;1.13;;;14.70;69.40;;;;;;4896861;29;20028;-69
2022/09/04 06:45:47;;;;;;;2.75;0.90;;;14.70;69.10;;;;;;4917200;29;20038;-68
2022/09/04 06:48:15;;;;;;;2.25;1.10;;;14.70;69.10;;;;;;4903193;29;20104;-68
2022/09/04 06:51:09;;;;;;;3.90;0.73;;;14.90;68.90;;;;;;4908665;29;20032;-69
2022/09/04 06:54:22;;;;;;;3.10;1.20;;;15.00;69.10;;;;;;4906315;29;20092;-68
2022/09/04 06:57:14;;;;;;;2.63;1.23;;;15.00;68.50;;;;;;4899039;29;20088;-68
2022/09/04 06:59:58;;;;;;;2.40;1.35;;;15.20;67.60;;;;;;4909696;29;20056;-68
2022/09/04 07:02:51;;;;;;;4.10;1.15;;;15.20;68.60;;;;;;4916181;29;20026;-68
2022/09/04 07:05:20;;;;;;;2.80;1.05;;;15.30;68.00;;;;;;4902289;29;20124;-68
2022/09/04 07:08:20;;;;;;;2.10;1.30;;;15.40;67.40;;;;;;4897077;29;20039;-68
2022/09/04 07:10:49;;;;;;;3.78;1.10;;;15.50;67.30;;;;;;4892552;29;20038;-68
2022/09/04 07:13:34;;;;;;;3.33;1.20;;;15.50;67.50;;;;;;4896896;29;20024;-68
2022/09/04 07:16:18;;;;;;;2.95;1.20;;;15.60;67.10;;;;;;4894745;29;20028;-69
2022/09/04 07:19:23;;;;;;;3.00;1.30;;;15.80;66.60;;;;;;4934942;29;20508;-68
2022/09/04 07:22:17;;;;;;;3.90;1.50;;;15.90;66.80;;;;;;4915451;29;20103;-68
2022/09/04 07:24:58;;;;;;;1.73;1.02;;;16.00;66.10;;;;;;4915408;29;20350;-69
2022/09/04 07:27:26;;;;;;;1.83;1.08;;;16.10;66.20;;;;;;4910175;29;20020;-69
2022/09/04 07:30:10;;;;;;;3.05;1.20;;;16.10;65.90;;;;;;4895994;29;20111;-69
2022/09/04 07:32:54;;;;;;;1.67;1.10;;;16.30;66.40;;;;;;4902248;29;20076;-69
2022/09/04 07:35:24;;;;;;;3.25;1.40;;;16.30;64.80;;;;;;4911879;29;20521;-68
2022/09/04 07:37:57;;;;;;;4.85;1.30;;;16.50;64.30;;;;;;4914285;29;20036;-69
2022/09/04 07:40:29;;;;;;;3.60;1.30;;;16.50;64.50;;;;;;4911949;29;20024;-69
2022/09/04 07:43:13;;;;;;;3.45;1.40;;;16.70;64.40;;;;;;4895324;29;20425;-69
2022/09/04 07:45:46;;;;;;;2.00;1.45;;;16.80;64.00;;;;;;4894589;29;20032;-69
2022/09/04 07:48:25;;;;;;;3.33;1.55;;;16.90;64.70;;;;;;4907604;29;20067;-69
2022/09/04 07:51:03;;;;;;;3.50;1.38;;;17.00;64.20;;;;;;4893692;29;20028;-70
2022/09/04 07:53:47;;;;;;;3.50;1.50;;;17.10;62.80;;;;;;4900174;29;20292;-69
2022/09/04 07:56:13;;;;;;;4.30;1.63;;;17.20;62.60;;;;;;4905142;29;20156;-69
2022/09/04 07:59:21;;;;;;;6.72;1.60;;;17.50;62.90;;;;;;4913764;29;20491;-69
2022/09/04 08:02:16;;;;;;;4.35;1.50;;;17.70;63.00;;;;;;4878073;29;20037;-69
2022/09/04 08:05:01;;;;;;;5.15;1.85;;;18.00;61.70;;;;;;4894194;29;20043;-69
2022/09/04 08:07:32;;;;;;;4.35;1.80;;;18.20;61.70;;;;;;4914007;29;20479;-69
2022/09/04 08:10:24;;;;;;;7.95;1.70;;;18.30;60.60;;;;;;4898689;29;20053;-69
2022/09/04 08:13:08;;;;;;;3.90;1.60;;;18.50;60.80;;;;;;4894950;29;20467;-69
2022/09/04 08:15:41;;;;;;;3.22;1.63;;;18.60;59.20;;;;;;4893794;29;20061;-69
2022/09/04 08:18:40;;;;;;;4.05;1.52;;;18.60;59.50;;;;;;4912381;29;20147;-69
2022/09/04 08:21:27;;;;;;;5.88;1.58;;;19.00;59.60;;;;;;4899264;29;20368;-69
2022/09/04 08:24:26;;;;;;;4.88;1.48;;;18.90;58.70;;;;;;4911595;29;20036;-69
2022/09/04 08:27:09;;;;;;;4.45;1.63;;;19.10;58.60;;;;;;4900323;29;20054;-70
2022/09/04 08:30:05;;;;;;;4.68;1.70;;;19.50;57.80;;;;;;4910221;29;20055;-69
2022/09/04 08:33:08;;;;;;;3.80;1.98;;;19.70;58.60;;;;;;4912489;29;20103;-69
2022/09/04 08:35:38;;;;;;;3.28;1.50;;;20.00;56.60;;;;;;4905469;29;20043;-69
2022/09/04 08:38:14;;;;;;;2.63;1.40;;;20.10;56.20;;;;;;4905225;29;20480;-69
2022/09/04 08:41:16;;;;;;;4.72;1.77;;;20.20;56.70;;;;;;4910597;29;20036;-70
2022/09/04 08:44:00;;;;;;;2.50;1.60;;;20.30;55.90;;;;;;4912474;29;20364;-70
2022/09/04 08:47:01;;;;;;;4.60;1.75;;;20.50;56.10;;;;;;4910228;29;20413;-69
2022/09/04 08:50:00;;;;;;;4.82;1.77;;;20.60;54.80;;;;;;4901221;29;20427;-70
2022/09/04 08:52:56;;;;;;;4.40;1.92;;;20.30;54.40;;;;;;4894979;29;20052;-70
2022/09/04 08:55:31;;;;;;;2.80;1.65;;;20.80;54.60;;;;;;4894321;29;20039;-69
2022/09/04 08:58:14;;;;;;;3.83;1.50;;;20.90;53.80;;;;;;4894198;29;20485;-69
2022/09/04 09:01:00;;;;;;;2.72;1.65;;;21.20;53.10;;;;;;4892860;29;20045;-70
2022/09/04 09:03:58;;;;;;;2.38;1.50;;;21.20;52.00;;;;;;4904250;29;20064;-69
2022/09/04 09:06:45;;;;;;;2.58;1.60;;;21.20;53.30;;;;;;4904041;29;20061;-69
2022/09/04 09:09:29;;;;;;;3.03;1.60;;;21.60;52.20;;;;;;4893898;29;20111;-69
2022/09/04 09:12:32;;;;;;;3.17;1.67;;;21.80;52.60;;;;;;4894369;29;20032;-69
2022/09/04 09:15:27;;;;;;;2.58;1.38;;;21.60;52.10;;;;;;4893389;29;20097;-69
2022/09/04 09:18:40;;;;;;;5.63;1.80;;;22.10;52.20;;;;;;4908514;29;20028;-70
2022/09/04 09:21:09;;;;;;;2.67;1.70;;;21.90;51.20;;;;;;4892883;29;20040;-69
2022/09/04 09:23:43;;;;;;;3.85;1.50;;;22.30;51.40;;;;;;4905811;29;20032;-69
2022/09/04 09:26:29;;;;;;;7.68;1.98;;;22.50;51.20;;;;;;4914474;29;20377;-69
2022/09/04 09:29:32;;;;;;;4.60;1.75;;;22.30;49.70;;;;;;4908723;29;20027;-69
2022/09/04 09:32:36;;;;;;;6.80;2.00;;;22.90;49.10;;;;;;4895425;29;20025;-69
2022/09/04 09:35:10;;;;;;;3.72;1.70;;;22.90;50.10;;;;;;4881843;29;20131;-69
2022/09/04 09:38:11;;;;;;;4.03;1.60;;;22.90;48.90;;;;;;4915895;29;20028;-69
2022/09/04 09:41:11;;;;;;;3.55;1.80;;;23.10;49.00;;;;;;4909326;29;20020;-69
2022/09/04 09:43:55;;;;;;;3.80;1.85;;;23.60;48.80;;;;;;4909245;29;20039;-70
2022/09/04 09:47:06;;;;;;;4.18;1.90;;;23.60;47.80;;;;;;4896203;29;20029;-70
2022/09/04 09:49:48;;;;;;;4.75;1.92;;;23.60;47.30;;;;;;4893343;29;20085;-69
2022/09/04 09:52:34;;;;;;;5.82;2.13;;;23.60;45.80;;;;;;4905206;29;20077;-69
2022/09/04 09:55:41;;;;;;;2.95;1.80;;;23.90;46.20;;;;;;4911943;29;20032;-69
2022/09/04 09:58:18;;;;;;;2.90;1.80;;;24.00;45.20;;;;;;4897196;29;20107;-70
2022/09/04 10:00:58;;;;;;;5.53;1.88;;;23.90;46.00;;;;;;4901107;29;20025;-70
2022/09/04 10:03:49;;;;;;;7.75;1.70;;;23.80;45.10;;;;;;4906923;29;20035;-70
2022/09/04 10:06:58;;;;;;;5.05;1.80;;;23.90;45.80;;;;;;4896817;29;20100;-70
2022/09/04 10:10:01;;;;;;;3.75;1.83;;;24.40;46.50;;;;;;4907860;29;20028;-69
2022/09/04 10:13:05;;;;;;;4.05;1.70;;;24.20;45.50;;;;;;4900198;29;20071;-70
2022/09/04 10:15:55;;;;;;;4.00;1.85;;;24.50;44.70;;;;;;4913394;29;20111;-69
2022/09/04 10:18:50;;;;;;;4.25;1.80;;;24.50;43.80;;;;;;4918951;29;20035;-69
2022/09/04 10:22:07;;;;;;;5.45;2.45;;;24.90;43.70;;;;;;4911883;29;20756;-70
2022/09/04 10:25:05;;;;;;;3.92;2.00;;;25.00;42.40;;;;;;4875350;29;20120;-70
2022/09/04 10:27:45;;;;;;;3.70;1.92;;;25.00;44.00;;;;;;4914760;29;20452;-70
2022/09/04 10:30:20;;;;;;;3.85;1.52;;;25.20;43.40;;;;;;4914714;29;20055;-71
2022/09/04 10:33:03;;;;;;;4.05;1.73;;;25.00;43.00;;;;;;4913633;29;20059;-70
2022/09/04 10:35:53;;;;;;;5.25;1.55;;;24.90;43.20;;;;;;4899672;29;20028;-70
2022/09/04 10:41:59;;;;;;;6.70;1.80;;;25.80;41.70;;;;;;4915079;29;20150;-70
2022/09/04 10:44:39;;;;;;;3.33;1.60;;;25.50;41.60;;;;;;4899830;29;20063;-70
2022/09/04 10:47:23;;;;;;;4.93;1.70;;;25.50;41.90;;;;;;4903087;29;20152;-70
2022/09/04 10:50:19;;;;;;;4.57;2.10;;;25.00;42.50;;;;;;4907492;29;20028;-70
2022/09/04 10:53:13;;;;;;;4.50;1.92;;;25.60;42.20;;;;;;4899168;29;20048;-70
2022/09/04 10:55:54;;;;;;;3.35;1.38;;;25.90;41.80;;;;;;4895938;29;20036;-70
2022/09/04 10:58:28;;;;;;;4.75;2.28;;;26.00;41.90;;;;;;4915553;29;20052;-70
2022/09/04 11:01:02;;;;;;;3.90;1.92;;;25.90;41.10;;;;;;4912725;29;20024;-71
2022/09/04 11:03:46;;;;;;;6.50;1.83;;;25.70;41.00;;;;;;4913313;29;20035;-71
2022/09/04 11:06:46;;;;;;;2.72;1.83;;;26.20;41.00;;;;;;4912008;29;20028;-70
2022/09/04 11:09:45;;;;;;;3.37;1.53;;;26.30;41.50;;;;;;4895787;29;20048;-71
2022/09/04 11:12:30;;;;;;;3.20;1.70;;;26.00;42.60;;;;;;4896168;29;20757;-70
2022/09/04 11:15:16;;;;;;;3.67;1.60;;;26.20;39.10;;;;;;4895223;29;20028;-71
2022/09/04 11:17:53;;;;;;;2.63;1.40;;;26.70;40.90;;;;;;4874668;29;20076;-71
2022/09/04 11:20:56;;;;;;;4.18;1.58;;;26.60;37.80;;;;;;4910362;29;20416;-71
2022/09/04 11:24:05;;;;;;;2.78;1.50;;;26.40;38.50;;;;;;4901674;29;20020;-71
2022/09/04 11:27:00;;;;;;;4.07;1.70;;;26.80;38.40;;;;;;4901863;29;20032;-71
2022/09/04 11:30:01;;;;;;;2.30;1.48;;;27.00;37.50;;;;;;4899873;29;20107;-71
2022/09/04 11:33:03;;;;;;;2.83;1.38;;;26.80;38.00;;;;;;4911299;29;20103;-70
2022/09/04 11:35:47;;;;;;;3.05;1.63;;;27.70;38.20;;;;;;4895220;29;20036;-70
2022/09/04 11:38:38;;;;;;;3.42;1.55;;;27.50;38.10;;;;;;4902678;29;20076;-70
2022/09/04 11:41:42;;;;;;;1.90;1.42;;;27.20;38.40;;;;;;4907143;29;20330;-70
2022/09/04 11:44:28;;;;;;;3.00;1.50;;;27.80;38.50;;;;;;4817421;29;20082;-71
2022/09/04 11:47:17;;;;;;;4.78;1.60;;;28.00;37.20;;;;;;4905712;29;20076;-70
2022/09/04 11:50:08;;;;;;;3.47;1.75;;;27.40;37.00;;;;;;4913653;29;20038;-71
2022/09/04 11:53:01;;;;;;;3.33;1.63;;;27.00;38.40;;;;;;4912960;29;20115;-71
2022/09/04 11:56:01;;;;;;;3.42;1.30;;;26.90;38.50;;;;;;4912075;29;20332;-71
2022/09/04 11:58:45;;;;;;;3.53;1.60;;;27.40;36.50;;;;;;4909125;29;20360;-71
2022/09/04 12:01:35;;;;;;;2.72;1.25;;;27.80;37.20;;;;;;4896644;29;20039;-71
2022/09/04 12:04:28;;;;;;;3.08;1.73;;;28.00;36.40;;;;;;4902714;29;20042;-71
2022/09/04 12:07:20;;;;;;;4.00;1.50;;;28.50;37.10;;;;;;4895110;29;20457;-71
2022/09/04 12:10:12;;;;;;;2.22;1.50;;;28.70;36.30;;;;;;4905745;29;20039;-72
2022/09/04 12:12:57;;;;;;;2.67;1.58;;;28.90;34.60;;;;;;4900757;29;20087;-71
2022/09/04 12:15:58;;;;;;;3.05;1.40;;;27.80;36.20;;;;;;4911696;29;20345;-71
2022/09/04 12:19:03;;;;;;;3.63;1.30;;;28.00;35.30;;;;;;4895473;29;20068;-71
2022/09/04 12:22:13;;;;;;;3.17;1.80;;;28.40;36.00;;;;;;4892210;29;20032;-71
2022/09/04 12:25:03;;;;;;;2.08;1.40;;;28.50;35.40;;;;;;4893585;29;20493;-70
2022/09/04 12:28:02;;;;;;;3.40;1.20;;;29.20;36.20;;;;;;4913487;29;20047;-71
2022/09/04 12:30:48;;;;;;;3.80;1.40;;;29.30;34.40;;;;;;4911268;29;20024;-71
2022/09/04 12:33:25;;;;;;;2.78;1.30;;;29.60;34.10;;;;;;4911162;29;20020;-71
2022/09/04 12:36:18;;;;;;;2.33;1.30;;;28.80;34.90;;;;;;4896958;29;20052;-71
2022/09/04 12:39:12;;;;;;;3.63;1.33;;;29.40;34.60;;;;;;4898951;29;20464;-71
2022/09/04 12:42:02;;;;;;;2.72;1.35;;;29.50;33.80;;;;;;4899012;29;20453;-70
2022/09/04 12:44:51;;;;;;;3.47;1.48;;;29.60;33.80;;;;;;4896468;29;20064;-71
2022/09/04 12:47:32;;;;;;;3.65;1.45;;;29.50;34.10;;;;;;4912903;29;20032;-71
2022/09/04 12:50:20;;;;;;;3.53;1.58;;;29.90;33.50;;;;;;4902714;29;20048;-72
2022/09/04 12:53:24;;;;;;;4.07;1.55;;;29.50;35.20;;;;;;4907421;29;20028;-72
2022/09/04 12:56:10;;;;;;;2.03;1.13;;;30.50;34.30;;;;;;4893787;29;20476;-71
2022/09/04 12:58:51;;;;;;;2.78;1.48;;;31.10;32.40;;;;;;4900795;29;20337;-71
2022/09/04 13:01:38;;;;;;;3.30;1.50;;;31.40;31.50;;;;;;4911832;29;20072;-71
2022/09/04 13:04:28;;;;;;;3.58;1.35;;;30.60;31.60;;;;;;4906246;29;20032;-71
2022/09/04 13:07:26;;;;;;;2.83;1.38;;;30.90;30.70;;;;;;4913508;29;20020;-71
2022/09/04 13:10:10;;;;;;;3.63;1.23;;;30.30;32.40;;;;;;4893812;29;20028;-71
2022/09/04 13:12:47;;;;;;;2.28;1.42;;;31.00;30.60;;;;;;4908551;29;20032;-71
2022/09/04 13:15:33;;;;;;;2.35;1.33;;;30.10;31.50;;;;;;4910956;29;20028;-71
2022/09/04 13:18:44;;;;;;;1.65;1.10;;;30.10;31.60;;;;;;4910092;29;20054;-72
2022/09/04 13:21:31;;;;;;;4.55;1.38;;;30.10;32.50;;;;;;4888306;29;20415;-71
2022/09/04 13:24:11;;;;;;;1.83;1.20;;;30.90;31.40;;;;;;4911370;29;20127;-71
2022/09/04 13:27:14;;;;;;;2.55;1.20;;;31.60;32.10;;;;;;4901233;29;20020;-71
2022/09/04 13:29:57;;;;;;;3.22;1.50;;;31.60;32.10;;;;;;4882204;29;20095;-71
2022/09/04 13:32:34;;;;;;;2.20;1.40;;;31.20;31.60;;;;;;4913482;29;20028;-71
2022/09/04 13:35:16;;;;;;;2.92;1.17;;;31.40;30.40;;;;;;4915777;29;20051;-72
2022/09/04 13:37:53;;;;;;;3.00;1.50;;;31.50;29.70;;;;;;4911078;29;20032;-71
2022/09/04 13:40:34;;;;;;;1.98;1.15;;;31.10;31.10;;;;;;4897610;29;20491;-71
2022/09/04 13:43:12;;;;;;;3.10;1.35;;;31.10;30.30;;;;;;4902291;29;20056;-71
2022/09/04 13:45:49;;;;;;;2.05;1.40;;;31.30;30.90;;;;;;4911876;29;20028;-71
2022/09/04 13:48:23;;;;;;;2.72;1.50;;;30.70;32.10;;;;;;4916930;29;20364;-72
2022/09/04 13:50:57;;;;;;;4.47;1.30;;;31.70;30.80;;;;;;4909995;29;20361;-72
2022/09/04 13:53:41;;;;;;;7.40;1.65;;;32.00;29.30;;;;;;4914771;29;20030;-71
2022/09/04 13:56:14;;;;;;;2.50;1.50;;;32.80;28.00;;;;;;4915596;29;20413;-71
2022/09/04 13:58:50;;;;;;;1.95;1.33;;;30.60;31.50;;;;;;4908492;29;20139;-71
2022/09/04 14:01:20;;;;;;;1.70;1.05;;;31.40;30.20;;;;;;4896738;29;20424;-70
2022/09/04 14:03:53;;;;;;;2.47;1.20;;;30.90;30.40;;;;;;4897708;29;20072;-71
2022/09/04 14:06:22;;;;;;;3.33;1.13;;;31.20;29.80;;;;;;4915733;29;20024;-71
2022/09/04 14:08:49;;;;;;;2.05;1.10;;;31.40;30.30;;;;;;4913304;29;20068;-71
2022/09/04 14:11:43;;;;;;;4.88;1.42;;;32.10;29.70;;;;;;4896728;29;20028;-71
2022/09/04 14:14:28;;;;;;;5.82;1.45;;;30.70;30.90;;;;;;4895920;29;20048;-71
2022/09/04 14:16:57;;;;;;;5.30;1.50;;;30.70;32.20;;;;;;4906882;29;20364;-71
2022/09/04 14:19:31;;;;;;;2.25;1.40;;;30.90;30.40;;;;;;4913316;29;20028;-71
2022/09/04 14:22:06;;;;;;;3.08;1.20;;;31.40;31.10;;;;;;4901298;29;20056;-71
2022/09/04 14:25:23;;;;;;;3.53;1.73;;;31.60;30.90;;;;;;4915759;29;20047;-71
2022/09/04 14:28:12;;;;;;;3.70;1.38;;;31.50;30.10;;;;;;4916272;29;20035;-71
2022/09/04 14:31:06;;;;;;;3.92;1.30;;;31.10;30.70;;;;;;4918398;29;20024;-71
2022/09/04 14:34:00;;;;;;;4.82;1.48;;;31.00;30.80;;;;;;4917583;29;20016;-70
2022/09/04 14:36:58;;;;;;;2.50;1.23;;;30.40;31.20;;;;;;4894187;29;20036;-71
2022/09/04 14:39:43;;;;;;;3.00;1.30;;;30.00;31.40;;;;;;4917344;29;20024;-70
2022/09/04 14:42:28;;;;;;;2.47;1.20;;;30.20;31.40;;;;;;4917875;29;20025;-70